Pagrindinis puslapis
METAR-TAF:

METAR-TAF

Oro uostai :

Jerevanas, Armėnija

platuma: 40-08-50N, ilguma: 044-23-45E, Aukštis: 865 m

Dabartinis oras

Ataskaita buvo paskelbta 20 minutes, ne 07:00 UTC
Vėjas 3 kt iš Pietų/Pietryčių, svyruoja nuo Rytų ir Pietvakarių
Temperatūra 25°C
Drėgmė 26%
Slėgis 1018 hPa
Matomumas 10 km arba daugiau
Mažai debesys ne aukštis 4000 ft

METAR: UDYZ 140700Z 15003KT 100V220 9999 FEW040 25/04 Q1018 R09/010070 NOSIG

Laikas: 11:20 (07:20 UTC)

Prognozė

Ataskaita buvo paskelbta 2 valandos ir 17 minutes, ne 05:03 UTC
Prognozė galioja nuo 14 metu 06 UTC su 15 metu 06 UTC
Vėjas 6 kt iš Pietų/Pietryčių
Matomumas 10 km arba daugiau
nėra debesų žemiau 1500 m ir nėra kamuolinių lietaus debesų

TAF: UDYZ 140503Z 1406/1506 16006KT CAVOK

Orai ataskaitas ir orų prognozės (METAR, TAF).

turimą stotys yra geltonos ir raudonos taškus žemėlapyje.

Perkelti pele per norėdami pamatyti stoties vardą.

Tada spustelėkite, norėdami matyti oro stebėjimo ir prognozės.

Norėdami pakeisti žemėlapį: spustelėkite ant žalios mygtukų su juodo kryžiaus žemyn,; žalią mygtuką su brūkšneliu, jei norite nutolinti; arba žalių rodyklių gretimoms žemėlapius.


METAR-TAF: